Time;durP1;ratioP1;P1;durP2;ratioP2;P2;SDS_P1;SDS_P2;PMS_P1;PMS_P2;Temp;Humidity;BMP_temperature;BMP_pressure;BME280_temperature;BME280_humidity;BME280_pressure;Samples;Min_cycle;Max_cycle;Signal;HPM_P1;HPM_P2
2022/12/28 00:01:24;;;;;;;;;;;;;;;2.11;100.00;99560.88;4270950;33;19954;-75
2022/12/28 00:03:51;;;;;;;;;;;;;;;2.58;100.00;99598.72;4273260;33;19949;-74
2022/12/28 00:06:18;;;;;;;;;;;;;;;2.65;100.00;99583.69;4276712;33;20028;-75
2022/12/28 00:08:45;;;;;;;;;;;;;;;2.51;100.00;99593.31;4293953;33;19949;-74
2022/12/28 00:11:12;;;;;;;;;;;;;;;2.42;100.00;99589.09;4264459;33;19997;-74
2022/12/28 00:13:39;;;;;;;;;;;;;;;2.35;100.00;99588.19;4278362;33;20807;-75
2022/12/28 00:16:08;;;;;;;;;;;;;;;2.22;100.00;99585.31;4279920;33;19957;-75
2022/12/28 00:18:36;;;;;;;;;;;;;;;2.30;100.00;99587.94;4280109;33;19949;-75
2022/12/28 00:21:02;;;;;;;;;;;;;;;2.15;100.00;99588.72;4278523;33;19951;-74
2022/12/28 00:23:29;;;;;;;;;;;;;;;2.09;100.00;99589.47;4266188;33;19981;-75
2022/12/28 00:25:55;;;;;;;;;;;;;;;2.10;100.00;99590.28;4265098;33;20421;-75
2022/12/28 00:28:22;;;;;;;;;;;;;;;1.95;100.00;99600.88;4259736;33;19965;-75
2022/12/28 00:30:48;;;;;;;;;;;;;;;1.96;100.00;99594.53;4263463;33;19960;-75
2022/12/28 00:33:14;;;;;;;;;;;;;;;1.84;100.00;99593.34;4263548;33;19949;-75
2022/12/28 00:35:40;;;;;;;;;;;;;;;2.15;100.00;99577.25;4279657;33;20462;-75
2022/12/28 00:38:06;;;;;;;;;;;;;;;1.77;100.00;99590.56;4284800;33;20047;-75
2022/12/28 00:40:33;;;;;;;;;;;;;;;1.81;100.00;99592.66;4286010;33;19971;-75
2022/12/28 00:42:59;;;;;;;;;;;;;;;1.71;100.00;99597.41;4301659;33;19980;-74
2022/12/28 00:45:25;;;;;;;;;;;;;;;1.54;100.00;99595.88;4307676;33;19952;-76
2022/12/28 00:47:51;;;;;;;;;;;;;;;1.59;100.00;99598.84;4307633;33;19937;-75
2022/12/28 00:50:17;;;;;;;;;;;;;;;1.59;100.00;99598.84;4264823;33;19986;-75
2022/12/28 00:52:44;;;;;;;;;;;;;;;1.47;100.00;99597.59;4264441;33;19946;-75
2022/12/28 00:55:10;;;;;;;;;;;;;;;1.78;100.00;99605.50;4264222;33;20271;-75
2022/12/28 00:57:39;;;;;;;;;;;;;;;1.80;100.00;99606.97;4257718;33;19984;-76
2022/12/28 03:00:19;;;;;;;;;;;;;;;1.72;100.00;99498.16;5059380;27;19960;-75
2022/12/28 03:02:56;;;;;;;;;;;;;;;1.76;100.00;99496.81;4302716;33;20310;-75
2022/12/28 03:08:36;;;;;;;;;;;;;;;1.39;100.00;99481.72;4312171;33;19962;-76
2022/12/28 03:11:10;;;;;;;;;;;;;;;1.65;100.00;99483.97;4310545;33;19944;-76
2022/12/28 03:14:01;;;;;;;;;;;;;;;1.65;100.00;99476.00;4312712;33;19952;-75
2022/12/28 03:25:41;;;;;;;;;;;;;;;1.43;100.00;99473.22;4312254;33;19941;-75
2022/12/28 03:33:23;;;;;;;;;;;;;;;1.68;100.00;99454.41;4296169;33;19945;-73
2022/12/28 03:36:06;;;;;;;;;;;;;;;1.49;100.00;99444.31;4302926;33;20732;-73
2022/12/28 03:38:37;;;;;;;;;;;;;;;1.48;100.00;99435.50;4312181;33;19957;-74
2022/12/28 03:41:10;;;;;;;;;;;;;;;1.41;100.00;99443.38;4311334;33;19945;-74
2022/12/28 03:43:44;;;;;;;;;;;;;;;1.45;100.00;99441.19;4312395;33;19995;-74
2022/12/28 03:46:28;;;;;;;;;;;;;;;1.49;100.00;99433.72;4312122;33;19958;-74
2022/12/28 03:48:56;;;;;;;;;;;;;;;1.55;100.00;99441.75;4310580;33;20290;-73
2022/12/28 03:51:24;;;;;;;;;;;;;;;1.41;100.00;99432.75;4311077;33;20030;-74
2022/12/28 03:53:51;;;;;;;;;;;;;;;1.44;100.00;99432.41;4312367;33;19974;-73
2022/12/28 03:56:22;;;;;;;;;;;;;;;1.48;100.00;99442.66;4312001;33;19959;-75
2022/12/28 03:58:51;;;;;;;;;;;;;;;1.30;100.00;99438.50;4298941;33;19974;-74
2022/12/28 04:01:19;;;;;;;;;;;;;;;1.26;100.00;99429.25;4310956;33;20149;-74
2022/12/28 04:03:52;;;;;;;;;;;;;;;1.20;100.00;99430.00;4312078;33;19967;-74
2022/12/28 04:06:19;;;;;;;;;;;;;;;1.31;100.00;99429.56;4310760;33;20002;-74
2022/12/28 04:08:45;;;;;;;;;;;;;;;1.34;100.00;99415.94;4309784;33;20368;-73
2022/12/28 04:11:12;;;;;;;;;;;;;;;1.17;100.00;99372.81;4311331;33;20361;-74
2022/12/28 04:13:38;;;;;;;;;;;;;;;1.40;100.00;99415.19;4311895;33;19945;-74
2022/12/28 04:16:06;;;;;;;;;;;;;;;1.62;100.00;99412.66;4312301;33;19971;-73
2022/12/28 04:18:33;;;;;;;;;;;;;;;1.67;100.00;99404.97;4313607;33;20007;-75
2022/12/28 04:21:00;;;;;;;;;;;;;;;1.26;100.00;99403.56;4310874;33;19948;-73
2022/12/28 04:23:27;;;;;;;;;;;;;;;1.35;100.00;99414.91;4314334;33;20443;-73
2022/12/28 04:25:59;;;;;;;;;;;;;;;1.36;100.00;99419.22;4313886;33;19956;-74
2022/12/28 04:28:26;;;;;;;;;;;;;;;1.50;100.00;99411.44;4312298;33;19944;-73
2022/12/28 04:30:54;;;;;;;;;;;;;;;1.41;100.00;99411.53;4310819;33;19956;-73
2022/12/28 04:33:21;;;;;;;;;;;;;;;1.28;100.00;99406.03;4310710;33;19945;-74
2022/12/28 04:35:47;;;;;;;;;;;;;;;1.23;100.00;99406.56;4311527;33;19967;-74
2022/12/28 04:38:14;;;;;;;;;;;;;;;1.21;100.00;99407.75;4311215;33;19963;-73
2022/12/28 04:40:40;;;;;;;;;;;;;;;1.47;100.00;99403.84;4310962;33;19960;-73
2022/12/28 04:43:06;;;;;;;;;;;;;;;1.47;100.00;99393.25;4311114;33;19963;-74
2022/12/28 04:45:33;;;;;;;;;;;;;;;1.34;100.00;99388.56;4309311;33;19944;-73
2022/12/28 04:47:59;;;;;;;;;;;;;;;1.34;100.00;99389.41;4311324;33;19979;-73
2022/12/28 04:50:28;;;;;;;;;;;;;;;1.62;100.00;99386.13;4311068;33;19948;-74
2022/12/28 04:52:54;;;;;;;;;;;;;;;1.60;100.00;99388.12;4307514;33;20023;-74
2022/12/28 04:55:20;;;;;;;;;;;;;;;1.54;100.00;99391.53;4311439;33;19949;-73
2022/12/28 04:57:46;;;;;;;;;;;;;;;1.14;100.00;99388.25;4308753;33;19963;-74
2022/12/28 05:00:13;;;;;;;;;;;;;;;1.15;100.00;99396.03;4311769;33;19948;-74
2022/12/28 05:02:39;;;;;;;;;;;;;;;1.04;100.00;99389.34;4311599;33;20010;-74
2022/12/28 05:05:06;;;;;;;;;;;;;;;1.27;100.00;99389.28;4311987;33;19949;-74
2022/12/28 05:07:32;;;;;;;;;;;;;;;1.18;100.00;99397.50;4309461;33;20063;-73
2022/12/28 05:09:58;;;;;;;;;;;;;;;1.30;100.00;99393.41;4280907;33;20001;-75
2022/12/28 05:12:25;;;;;;;;;;;;;;;1.28;100.00;99395.44;4278881;33;19955;-74
2022/12/28 05:14:52;;;;;;;;;;;;;;;1.14;100.00;99382.97;4280592;33;20081;-74
2022/12/28 05:17:18;;;;;;;;;;;;;;;1.18;100.00;99384.22;4280602;33;20331;-74
2022/12/28 05:19:44;;;;;;;;;;;;;;;1.58;100.00;99375.06;4264382;33;19945;-74
2022/12/28 05:22:11;;;;;;;;;;;;;;;1.32;100.00;99378.13;4250516;33;19962;-74
2022/12/28 05:24:38;;;;;;;;;;;;;;;1.31;100.00;99379.16;4252353;33;19956;-74
2022/12/28 05:27:04;;;;;;;;;;;;;;;1.47;100.00;99377.31;4242789;33;19964;-75
2022/12/28 05:29:30;;;;;;;;;;;;;;;1.48;100.00;99373.66;4235866;33;20066;-73
2022/12/28 05:31:56;;;;;;;;;;;;;;;1.79;100.00;99370.84;4234547;33;19962;-74
2022/12/28 05:34:22;;;;;;;;;;;;;;;1.69;100.00;99370.28;4238180;33;20978;-74
2022/12/28 05:36:49;;;;;;;;;;;;;;;1.91;100.00;99373.84;4237532;33;19953;-74
2022/12/28 05:39:15;;;;;;;;;;;;;;;1.90;100.00;99366.88;4236282;33;19939;-75
2022/12/28 05:41:41;;;;;;;;;;;;;;;2.04;100.00;99359.91;4248235;33;20383;-75
2022/12/28 05:44:07;;;;;;;;;;;;;;;1.79;100.00;99355.72;4261003;33;20323;-73
2022/12/28 05:46:34;;;;;;;;;;;;;;;1.45;100.00;99354.47;4262486;33;19941;-74
2022/12/28 05:49:00;;;;;;;;;;;;;;;1.56;100.00;99349.69;4255547;33;19946;-74
2022/12/28 05:51:28;;;;;;;;;;;;;;;1.53;100.00;99358.00;4260514;33;19958;-74
2022/12/28 05:53:54;;;;;;;;;;;;;;;1.61;100.00;99357.91;4264642;33;19945;-74
2022/12/28 05:56:21;;;;;;;;;;;;;;;1.59;100.00;99352.78;4263080;33;20342;-74
2022/12/28 05:58:52;;;;;;;;;;;;;;;1.56;100.00;99355.00;4269681;33;19964;-73
2022/12/28 06:01:19;;;;;;;;;;;;;;;1.74;100.00;99347.50;4303285;33;19966;-73
2022/12/28 06:03:46;;;;;;;;;;;;;;;1.40;100.00;99351.50;4302771;33;19952;-74
2022/12/28 06:06:13;;;;;;;;;;;;;;;1.43;100.00;99345.03;4301763;33;20084;-73
2022/12/28 06:08:41;;;;;;;;;;;;;;;1.33;100.00;99347.94;4301813;33;19959;-74
2022/12/28 06:11:09;;;;;;;;;;;;;;;1.23;100.00;99345.56;4303383;33;20300;-74
2022/12/28 06:13:35;;;;;;;;;;;;;;;1.44;100.00;99336.88;4303167;33;19949;-75
2022/12/28 06:16:05;;;;;;;;;;;;;;;1.56;100.00;99336.41;4300925;33;20301;-73
2022/12/28 06:18:32;;;;;;;;;;;;;;;1.01;100.00;99336.66;4301462;33;19949;-74
2022/12/28 06:21:13;;;;;;;;;;;;;;;1.15;100.00;99339.50;4277262;33;19962;-75
2022/12/28 06:23:40;;;;;;;;;;;;;;;0.90;100.00;99339.75;4273368;33;20016;-75
2022/12/28 06:26:07;;;;;;;;;;;;;;;1.18;100.00;99332.03;4278213;33;19967;-73
2022/12/28 06:28:35;;;;;;;;;;;;;;;1.14;100.00;99336.03;4274366;33;19942;-73
2022/12/28 06:31:10;;;;;;;;;;;;;;;1.36;100.00;99336.97;4271887;33;19952;-73
2022/12/28 06:33:37;;;;;;;;;;;;;;;1.26;100.00;99328.44;4273722;33;19958;-73
2022/12/28 06:36:03;;;;;;;;;;;;;;;1.56;100.00;99329.25;4270758;33;19950;-73
2022/12/28 06:38:31;;;;;;;;;;;;;;;1.49;100.00;99327.56;4269481;33;19949;-73
2022/12/28 06:41:02;;;;;;;;;;;;;;;1.64;100.00;99315.06;4274890;33;19955;-74
2022/12/28 06:43:32;;;;;;;;;;;;;;;1.40;100.00;99314.34;4274241;33;19992;-74
2022/12/28 06:45:58;;;;;;;;;;;;;;;1.36;100.00;99307.78;4238491;33;19947;-73
2022/12/28 06:48:24;;;;;;;;;;;;;;;1.67;100.00;99309.41;4235494;33;19954;-74
2022/12/28 06:50:58;;;;;;;;;;;;;;;1.44;100.00;99298.91;4223678;34;19961;-74
2022/12/28 06:53:28;;;;;;;;;;;;;;;1.37;100.00;99308.59;4211175;34;19943;-74
2022/12/28 06:55:58;;;;;;;;;;;;;;;1.51;100.00;99296.34;4223983;34;19946;-74
2022/12/28 06:58:25;;;;;;;;;;;;;;;1.11;100.00;99299.25;4220150;33;19951;-73
2022/12/28 07:00:51;;;;;;;;;;;;;;;1.37;100.00;99298.81;4238294;33;20012;-73
2022/12/28 07:03:18;;;;;;;;;;;;;;;1.26;100.00;99301.91;4238399;33;19960;-75
2022/12/28 07:05:44;;;;;;;;;;;;;;;1.13;100.00;99291.13;4237588;33;20369;-74
2022/12/28 07:08:10;;;;;;;;;;;;;;;1.22;100.00;99295.34;4238172;33;20305;-74
2022/12/28 07:10:36;;;;;;;;;;;;;;;1.29;100.00;99295.44;4234594;33;20433;-74
2022/12/28 07:13:03;;;;;;;;;;;;;;;1.15;100.00;99295.25;4235903;33;19981;-74
2022/12/28 07:15:30;;;;;;;;;;;;;;;1.16;100.00;99285.44;4239779;33;19961;-74
2022/12/28 07:17:59;;;;;;;;;;;;;;;1.35;100.00;99289.38;4252311;33;19977;-74
2022/12/28 07:20:25;;;;;;;;;;;;;;;1.35;100.00;99287.56;4253150;33;20328;-75
2022/12/28 07:22:52;;;;;;;;;;;;;;;1.55;100.00;99281.72;4277529;33;20075;-75
2022/12/28 07:25:18;;;;;;;;;;;;;;;1.48;100.00;99278.13;4285200;33;19957;-73
2022/12/28 07:27:44;;;;;;;;;;;;;;;1.48;100.00;99283.44;4283566;33;19989;-75
2022/12/28 07:30:11;;;;;;;;;;;;;;;1.41;100.00;99272.75;4283171;33;19979;-74
2022/12/28 07:32:38;;;;;;;;;;;;;;;1.47;100.00;99271.16;4284915;33;19937;-74
2022/12/28 07:35:04;;;;;;;;;;;;;;;1.68;100.00;99267.78;4302347;33;20344;-73
2022/12/28 07:37:31;;;;;;;;;;;;;;;1.61;100.00;99272.97;4306874;33;20203;-75
2022/12/28 07:39:57;;;;;;;;;;;;;;;1.58;100.00;99268.03;4288698;33;19937;-74
2022/12/28 07:42:23;;;;;;;;;;;;;;;1.68;100.00;99263.28;4288872;33;19952;-74
2022/12/28 07:44:49;;;;;;;;;;;;;;;1.94;100.00;99267.25;4286060;33;19980;-73
2022/12/28 07:47:16;;;;;;;;;;;;;;;1.83;100.00;99265.06;4283266;33;20336;-76
2022/12/28 07:49:42;;;;;;;;;;;;;;;1.92;100.00;99269.28;4283705;33;20231;-73
2022/12/28 07:52:08;;;;;;;;;;;;;;;1.86;100.00;99262.03;4268134;33;20597;-74
2022/12/28 07:54:36;;;;;;;;;;;;;;;1.89;100.00;99248.41;4274132;33;19965;-74
2022/12/28 07:57:02;;;;;;;;;;;;;;;1.99;100.00;99256.88;4272917;33;20094;-74
2022/12/28 07:59:28;;;;;;;;;;;;;;;2.01;100.00;99262.84;4269224;33;19954;-74
2022/12/28 08:01:55;;;;;;;;;;;;;;;2.12;100.00;99248.22;4270474;33;19954;-74
2022/12/28 08:04:21;;;;;;;;;;;;;;;1.89;100.00;99259.03;4273952;33;19965;-75
2022/12/28 08:06:48;;;;;;;;;;;;;;;2.03;100.00;99260.81;4273398;33;19966;-72
2022/12/28 08:09:14;;;;;;;;;;;;;;;2.33;100.00;99255.34;4273947;33;20320;-73
2022/12/28 08:11:41;;;;;;;;;;;;;;;2.30;100.00;99245.94;4282149;33;19988;-73
2022/12/28 08:14:08;;;;;;;;;;;;;;;2.26;100.00;99246.50;4259849;33;20035;-73
2022/12/28 08:19:11;;;;;;;;;;;;;;;2.20;100.00;99239.28;4259450;33;19959;-73
2022/12/28 08:21:38;;;;;;;;;;;;;;;1.93;100.00;99244.34;4253638;33;20032;-73
2022/12/28 08:24:06;;;;;;;;;;;;;;;2.23;100.00;99238.91;4261337;33;20008;-73
2022/12/28 08:26:36;;;;;;;;;;;;;;;2.12;100.00;99232.28;4265512;33;19961;-73
2022/12/28 08:29:04;;;;;;;;;;;;;;;2.37;100.00;99235.38;4263406;33;20348;-73
2022/12/28 08:31:32;;;;;;;;;;;;;;;2.33;100.00;99234.09;4250028;33;19973;-76
2022/12/28 08:34:00;;;;;;;;;;;;;;;2.35;100.00;99237.41;4249447;33;20118;-76
2022/12/28 08:36:27;;;;;;;;;;;;;;;2.52;100.00;99236.13;4251010;33;19962;-77
2022/12/28 08:38:53;;;;;;;;;;;;;;;2.43;100.00;99233.78;4250055;33;19956;-76
2022/12/28 08:41:20;;;;;;;;;;;;;;;2.75;100.00;99236.91;4251257;33;20780;-76
2022/12/28 08:43:47;;;;;;;;;;;;;;;2.56;100.00;99243.72;4251469;33;19969;-76
2022/12/28 08:46:15;;;;;;;;;;;;;;;2.49;100.00;99244.47;4267052;33;20390;-76
2022/12/28 08:48:42;;;;;;;;;;;;;;;2.71;100.00;99244.41;4268725;33;19963;-76
2022/12/28 08:51:09;;;;;;;;;;;;;;;2.83;100.00;99261.50;4270121;33;19964;-76
2022/12/28 08:53:36;;;;;;;;;;;;;;;2.77;100.00;99251.63;4255897;33;19942;-76
2022/12/28 08:56:12;;;;;;;;;;;;;;;2.61;100.00;99257.25;4254120;33;19954;-76
2022/12/28 08:58:38;;;;;;;;;;;;;;;2.45;100.00;99227.25;4260314;33;20610;-76
2022/12/28 09:01:05;;;;;;;;;;;;;;;2.62;100.00;99258.91;4252379;33;19954;-76
2022/12/28 09:03:31;;;;;;;;;;;;;;;2.74;100.00;99252.00;4255272;33;19958;-76
2022/12/28 09:06:00;;;;;;;;;;;;;;;2.65;100.00;99261.16;4257131;33;20023;-75
2022/12/28 09:08:27;;;;;;;;;;;;;;;2.74;100.00;99246.69;4254047;33;20370;-76
2022/12/28 09:10:53;;;;;;;;;;;;;;;2.88;100.00;99245.78;4245998;33;20009;-76
2022/12/28 09:13:19;;;;;;;;;;;;;;;2.52;100.00;99249.41;4266195;33;20152;-76
2022/12/28 09:15:54;;;;;;;;;;;;;;;2.66;100.00;99238.87;4267627;33;19979;-77
2022/12/28 09:18:20;;;;;;;;;;;;;;;2.52;100.00;99254.72;4282497;33;19955;-77
2022/12/28 09:20:47;;;;;;;;;;;;;;;2.66;100.00;99237.03;4294260;33;19974;-77
2022/12/28 09:23:13;;;;;;;;;;;;;;;2.65;100.00;99251.34;4289767;33;19941;-77
2022/12/28 09:25:39;;;;;;;;;;;;;;;2.82;100.00;99235.91;4292692;33;19961;-77
2022/12/28 09:28:06;;;;;;;;;;;;;;;2.50;100.00;99245.28;4265113;33;20069;-77
2022/12/28 09:30:32;;;;;;;;;;;;;;;2.68;100.00;99242.16;4237938;33;19968;-76
2022/12/28 09:35:46;;;;;;;;;;;;;;;2.49;100.00;99244.47;4222422;33;19980;-77
2022/12/28 09:38:12;;;;;;;;;;;;;;;2.56;100.00;99233.06;4219244;33;20003;-77
2022/12/28 09:40:38;;;;;;;;;;;;;;;2.88;100.00;99227.16;4222010;33;20088;-78
2022/12/28 09:43:04;;;;;;;;;;;;;;;2.85;100.00;99222.22;4181825;34;19973;-77
2022/12/28 09:45:32;;;;;;;;;;;;;;;2.53;100.00;99213.81;4183692;34;20006;-77
2022/12/28 09:48:02;;;;;;;;;;;;;;;2.46;100.00;99202.31;4187315;34;19955;-76
2022/12/28 09:50:30;;;;;;;;;;;;;;;2.69;100.00;99211.91;4179614;34;20034;-76
2022/12/28 09:53:05;;;;;;;;;;;;;;;2.63;100.00;99207.34;4179439;34;20257;-76
2022/12/28 09:55:37;;;;;;;;;;;;;;;2.86;100.00;99207.09;4196627;34;20067;-77
2022/12/28 09:58:04;;;;;;;;;;;;;;;2.75;100.00;99205.81;4193760;34;19958;-76
2022/12/28 10:00:33;;;;;;;;;;;;;;;2.65;100.00;99152.97;4196253;34;19944;-76
2022/12/28 10:03:01;;;;;;;;;;;;;;;2.69;100.00;99186.13;4222043;34;19943;-76
2022/12/28 10:05:28;;;;;;;;;;;;;;;3.05;100.00;99178.97;4202916;34;19959;-75
2022/12/28 10:07:56;;;;;;;;;;;;;;;2.59;100.00;99164.38;4214810;34;19951;-73
2022/12/28 10:10:24;;;;;;;;;;;;;;;2.48;100.00;99157.75;4215311;34;20340;-73
2022/12/28 10:12:51;;;;;;;;;;;;;;;2.68;100.00;99141.13;4213080;34;19989;-73
2022/12/28 10:15:17;;;;;;;;;;;;;;;2.57;100.00;99149.63;4216943;33;19957;-72
2022/12/28 10:17:44;;;;;;;;;;;;;;;2.72;100.00;99139.72;4264479;33;20069;-73
2022/12/28 10:20:15;;;;;;;;;;;;;;;2.65;100.00;99130.88;4279709;33;20291;-73
2022/12/28 10:22:42;;;;;;;;;;;;;;;2.59;100.00;99134.34;4276718;33;20032;-73
2022/12/28 10:25:19;;;;;;;;;;;;;;;2.94;100.00;99137.78;4228756;33;20371;-73
2022/12/28 10:27:45;;;;;;;;;;;;;;;2.74;100.00;99135.00;4223319;33;20660;-74
2022/12/28 10:30:18;;;;;;;;;;;;;;;2.50;100.00;99118.50;4223468;33;19954;-73
2022/12/28 10:32:48;;;;;;;;;;;;;;;3.07;100.00;99118.41;4239861;33;19960;-73
2022/12/28 10:35:21;;;;;;;;;;;;;;;2.94;100.00;99121.03;4232837;33;20259;-73
2022/12/28 10:37:47;;;;;;;;;;;;;;;3.08;100.00;99125.37;4244215;33;19963;-73
2022/12/28 10:40:22;;;;;;;;;;;;;;;3.16;100.00;99119.88;4238298;33;19960;-73
2022/12/28 10:42:50;;;;;;;;;;;;;;;3.12;100.00;99115.97;4237688;33;19993;-74
2022/12/28 10:45:17;;;;;;;;;;;;;;;3.05;100.00;99125.78;4238915;33;20357;-73
2022/12/28 10:47:45;;;;;;;;;;;;;;;3.15;100.00;99125.41;4239009;33;19965;-74
2022/12/28 10:50:31;;;;;;;;;;;;;;;3.40;100.00;99117.72;4239516;33;19946;-73
2022/12/28 10:52:57;;;;;;;;;;;;;;;3.33;100.00;99111.53;4252801;33;20366;-73
2022/12/28 10:55:28;;;;;;;;;;;;;;;3.42;100.00;99123.63;4242923;33;19959;-74
2022/12/28 10:57:54;;;;;;;;;;;;;;;3.54;100.00;99105.22;4266122;33;19949;-73
2022/12/28 11:00:21;;;;;;;;;;;;;;;3.50;100.00;99104.81;4261644;33;19965;-74
2022/12/28 11:02:48;;;;;;;;;;;;;;;3.75;100.00;99099.75;4267225;33;19961;-73
2022/12/28 11:05:22;;;;;;;;;;;;;;;3.79;100.00;99094.81;4291246;33;19983;-73
2022/12/28 11:07:49;;;;;;;;;;;;;;;3.61;100.00;99103.41;4246664;33;20317;-73
2022/12/28 11:10:24;;;;;;;;;;;;;;;3.52;100.00;99109.94;4248609;33;19969;-73
2022/12/28 11:13:00;;;;;;;;;;;;;;;3.54;100.00;99098.06;4249926;33;19958;-74
2022/12/28 11:15:28;;;;;;;;;;;;;;;3.73;100.00;99074.31;4250342;33;20049;-73
2022/12/28 11:18:14;;;;;;;;;;;;;;;4.16;100.00;99073.91;4235742;33;19946;-73
2022/12/28 11:20:48;;;;;;;;;;;;;;;4.18;100.00;99063.87;4238883;33;19958;-73
2022/12/28 11:23:22;;;;;;;;;;;;;;;4.02;100.00;99053.63;4235255;33;19954;-73
2022/12/28 11:25:55;;;;;;;;;;;;;;;4.15;100.00;99046.44;4229816;33;20020;-73
2022/12/28 11:28:21;;;;;;;;;;;;;;;3.73;100.00;99043.19;4220492;34;20777;-74
2022/12/28 11:30:48;;;;;;;;;;;;;;;3.87;100.00;99038.66;4233589;33;19942;-74
2022/12/28 11:33:41;;;;;;;;;;;;;;;3.69;100.00;99035.81;4238061;33;20386;-74
2022/12/28 11:36:13;;;;;;;;;;;;;;;4.04;100.00;99027.59;4247077;33;19958;-74
2022/12/28 11:38:41;;;;;;;;;;;;;;;3.90;100.00;99021.47;4266596;33;19945;-73
2022/12/28 11:41:30;;;;;;;;;;;;;;;3.95;100.00;99011.00;4287487;33;19945;-73
2022/12/28 11:43:59;;;;;;;;;;;;;;;4.22;100.00;99014.44;4276345;33;19957;-73
2022/12/28 11:46:25;;;;;;;;;;;;;;;4.14;100.00;99009.34;4273563;33;19988;-73
2022/12/28 11:49:03;;;;;;;;;;;;;;;4.15;100.00;99003.00;4263987;33;20511;-73
2022/12/28 11:51:31;;;;;;;;;;;;;;;4.37;100.00;98996.38;4242955;33;19993;-73
2022/12/28 11:53:57;;;;;;;;;;;;;;;3.89;100.00;98987.84;4242702;33;19970;-73
2022/12/28 11:56:25;;;;;;;;;;;;;;;4.16;100.00;98994.78;4240383;33;20564;-74
2022/12/28 11:58:57;;;;;;;;;;;;;;;4.11;100.00;98985.78;4239557;33;19950;-73
2022/12/28 12:01:26;;;;;;;;;;;;;;;3.99;100.00;98983.75;4394217;28;20036;-73
2022/12/28 12:03:55;;;;;;;;;;;;;;;4.30;100.00;98973.41;4241812;33;19967;-73
2022/12/28 12:06:40;;;;;;;;;;;;;;;4.25;100.00;98966.06;4241971;33;19962;-74
2022/12/28 12:09:21;;;;;;;;;;;;;;;4.41;100.00;98958.63;4245515;33;19958;-73
2022/12/28 12:11:48;;;;;;;;;;;;;;;4.70;100.00;98959.91;4245403;33;19989;-74
2022/12/28 12:14:21;;;;;;;;;;;;;;;4.84;100.00;98952.66;4244807;33;19939;-73
2022/12/28 12:16:49;;;;;;;;;;;;;;;4.27;100.00;98948.00;4247199;33;19958;-73
2022/12/28 12:19:24;;;;;;;;;;;;;;;4.64;100.00;98937.59;4261348;33;20052;-74
2022/12/28 12:22:09;;;;;;;;;;;;;;;4.67;100.00;98921.16;4276202;33;19987;-74
2022/12/28 12:24:41;;;;;;;;;;;;;;;4.60;100.00;98930.22;4258145;33;19952;-73
2022/12/28 12:27:14;;;;;;;;;;;;;;;4.65;100.00;98927.75;4266711;33;19954;-73
2022/12/28 12:29:43;;;;;;;;;;;;;;;5.11;100.00;98928.50;4261706;33;19989;-73
2022/12/28 12:32:23;;;;;;;;;;;;;;;4.81;100.00;98923.75;4247157;33;20009;-72
2022/12/28 12:35:03;;;;;;;;;;;;;;;4.60;100.00;98916.91;4250137;33;19989;-73
2022/12/28 12:37:29;;;;;;;;;;;;;;;4.75;100.00;98911.25;4248505;33;20001;-73
2022/12/28 12:40:08;;;;;;;;;;;;;;;4.99;100.00;98882.97;4246987;33;20242;-73
2022/12/28 12:42:44;;;;;;;;;;;;;;;4.77;100.00;98909.19;4249678;33;19949;-73
2022/12/28 12:45:23;;;;;;;;;;;;;;;4.66;100.00;98908.84;4246274;33;19961;-73
2022/12/28 12:48:02;;;;;;;;;;;;;;;4.76;100.00;98895.03;4247453;33;20005;-73
2022/12/28 12:50:47;;;;;;;;;;;;;;;5.01;100.00;98904.94;4248661;33;19969;-74
2022/12/28 12:53:31;;;;;;;;;;;;;;;5.11;100.00;98899.12;4248774;33;19997;-74
2022/12/28 12:55:58;;;;;;;;;;;;;;;4.91;100.00;98878.72;4265242;33;20187;-74
2022/12/28 12:58:27;;;;;;;;;;;;;;;4.92;100.00;98877.69;4277995;33;20369;-73
2022/12/28 13:03:48;;;;;;;;;;;;;;;4.99;100.00;98883.78;4246853;33;19963;-74
2022/12/28 13:06:16;;;;;;;;;;;;;;;5.11;100.00;98867.09;4248907;33;19966;-73
2022/12/28 13:08:51;;;;;;;;;;;;;;;4.70;100.00;98867.38;4251274;33;19945;-73
2022/12/28 13:11:18;;;;;;;;;;;;;;;4.84;100.00;98864.63;4249759;33;19989;-74
2022/12/28 13:13:53;;;;;;;;;;;;;;;4.79;100.00;98859.13;4250801;33;20314;-73
2022/12/28 13:16:22;;;;;;;;;;;;;;;4.91;100.00;98863.56;4248164;33;19972;-73
2022/12/28 13:18:59;;;;;;;;;;;;;;;4.96;100.00;98860.22;4247655;33;19960;-73
2022/12/28 13:21:27;;;;;;;;;;;;;;;5.29;100.00;98864.47;4219518;34;20383;-74
2022/12/28 13:23:53;;;;;;;;;;;;;;;5.16;100.00;98870.72;4221545;34;20140;-73
2022/12/28 13:26:25;;;;;;;;;;;;;;;5.11;100.00;98856.44;4218981;34;19959;-73
2022/12/28 13:28:54;;;;;;;;;;;;;;;5.04;100.00;98865.31;4217638;34;19950;-73
2022/12/28 13:31:22;;;;;;;;;;;;;;;4.77;100.00;98856.69;4219646;33;19986;-73
2022/12/28 13:33:54;;;;;;;;;;;;;;;4.72;100.00;98852.00;4231185;33;19947;-73
2022/12/28 13:36:21;;;;;;;;;;;;;;;4.80;100.00;98852.75;4236411;33;20020;-73
2022/12/28 13:38:58;;;;;;;;;;;;;;;4.75;100.00;98848.06;4234803;33;19951;-75
2022/12/28 13:41:26;;;;;;;;;;;;;;;4.78;100.00;98836.16;4236598;33;20004;-74
2022/12/28 13:44:19;;;;;;;;;;;;;;;4.71;100.00;98837.00;4235884;33;19951;-73
2022/12/28 13:46:54;;;;;;;;;;;;;;;4.91;100.00;98836.03;4225011;33;20317;-72
2022/12/28 13:49:21;;;;;;;;;;;;;;;4.69;100.00;98839.09;4207173;34;20001;-74
2022/12/28 13:51:49;;;;;;;;;;;;;;;4.88;100.00;98826.63;4221882;33;19958;-72
2022/12/28 13:54:16;;;;;;;;;;;;;;;4.86;100.00;98825.22;4224836;34;20332;-72
2022/12/28 13:56:43;;;;;;;;;;;;;;;4.68;100.00;98824.09;4213993;34;20406;-73
2022/12/28 13:59:13;;;;;;;;;;;;;;;4.67;100.00;98830.47;4233354;33;19938;-72
2022/12/28 14:01:42;;;;;;;;;;;;;;;4.69;100.00;98817.75;4245432;33;20009;-75
2022/12/28 14:04:11;;;;;;;;;;;;;;;4.82;100.00;98816.00;4253867;33;20016;-75
2022/12/28 14:06:43;;;;;;;;;;;;;;;4.77;100.00;98813.16;4251173;33;20409;-75
2022/12/28 14:09:13;;;;;;;;;;;;;;;4.76;100.00;98800.88;4250638;33;19960;-75
2022/12/28 14:11:40;;;;;;;;;;;;;;;4.94;100.00;98787.56;4253796;33;19961;-75
2022/12/28 14:14:08;;;;;;;;;;;;;;;4.92;100.00;98795.00;4256024;33;19946;-76
2022/12/28 14:16:35;;;;;;;;;;;;;;;4.66;100.00;98786.16;4256364;33;20350;-76
2022/12/28 14:19:02;;;;;;;;;;;;;;;4.53;100.00;98787.09;4254773;33;20018;-76
2022/12/28 14:21:47;;;;;;;;;;;;;;;4.54;100.00;98771.91;4253486;33;19942;-75
2022/12/28 14:24:14;;;;;;;;;;;;;;;4.59;100.00;98785.41;4271137;33;19942;-76
2022/12/28 14:26:47;;;;;;;;;;;;;;;4.43;100.00;98780.59;4270865;33;19987;-76
2022/12/28 14:29:18;;;;;;;;;;;;;;;4.42;100.00;98784.28;4269527;33;20317;-75
2022/12/28 14:31:44;;;;;;;;;;;;;;;4.34;100.00;98778.19;4270687;33;20074;-75
2022/12/28 14:34:21;;;;;;;;;;;;;;;4.14;100.00;98788.16;4279507;33;20039;-75
2022/12/28 14:36:49;;;;;;;;;;;;;;;4.34;100.00;98772.88;4284209;33;20248;-76
2022/12/28 14:39:26;;;;;;;;;;;;;;;4.08;100.00;98778.34;4283286;33;20341;-76
2022/12/28 14:41:53;;;;;;;;;;;;;;;4.29;100.00;98770.03;4270693;33;19938;-77
2022/12/28 14:44:27;;;;;;;;;;;;;;;4.17;100.00;98766.41;4273846;33;19946;-76
2022/12/28 14:46:54;;;;;;;;;;;;;;;4.14;100.00;98767.66;4270691;33;20336;-76
2022/12/28 14:49:27;;;;;;;;;;;;;;;4.23;100.00;98770.88;4267050;33;19952;-76
2022/12/28 14:52:15;;;;;;;;;;;;;;;4.06;100.00;98764.44;4257034;33;19947;-76
2022/12/28 14:54:44;;;;;;;;;;;;;;;4.37;100.00;98766.28;4264533;33;20001;-75
2022/12/28 14:57:23;;;;;;;;;;;;;;;4.30;100.00;98766.31;4259674;33;19946;-77
2022/12/28 14:59:55;;;;;;;;;;;;;;;4.25;100.00;98766.16;4243564;33;20438;-76
2022/12/28 15:02:37;;;;;;;;;;;;;;;4.27;100.00;98765.94;4245207;33;20104;-77
2022/12/28 15:05:24;;;;;;;;;;;;;;;4.31;100.00;98762.62;4246480;33;20002;-76
2022/12/28 15:07:50;;;;;;;;;;;;;;;4.22;100.00;98769.25;4242452;33;19942;-75
2022/12/28 15:10:16;;;;;;;;;;;;;;;4.24;100.00;98780.50;4244127;33;19964;-75
2022/12/28 15:12:42;;;;;;;;;;;;;;;4.26;100.00;98774.97;4228066;33;20011;-76
2022/12/28 15:15:09;;;;;;;;;;;;;;;4.36;100.00;98768.13;4243856;33;20080;-76
2022/12/28 15:17:35;;;;;;;;;;;;;;;4.33;100.00;98776.56;4232363;33;20010;-76
2022/12/28 15:20:02;;;;;;;;;;;;;;;4.40;100.00;98768.50;4230114;33;19950;-74
2022/12/28 15:22:28;;;;;;;;;;;;;;;4.27;100.00;98765.94;4229677;33;20002;-75
2022/12/28 15:24:54;;;;;;;;;;;;;;;3.92;100.00;98764.47;4231459;33;19961;-76